sensor_id;sensor_type;location;lat;lon;timestamp;temperature;humidity
35804;DHT22;21924;51.934;7.414;2024-03-06T00:01:21;6.70;99.90
35804;DHT22;21924;51.934;7.414;2024-03-06T00:04:05;6.60;99.90
35804;DHT22;21924;51.934;7.414;2024-03-06T00:06:50;6.70;99.90
35804;DHT22;21924;51.934;7.414;2024-03-06T00:09:36;6.60;99.90
35804;DHT22;21924;51.934;7.414;2024-03-06T00:12:20;6.60;99.90
35804;DHT22;21924;51.934;7.414;2024-03-06T00:15:05;6.60;99.90
35804;DHT22;21924;51.934;7.414;2024-03-06T00:17:49;6.60;99.90
35804;DHT22;21924;51.934;7.414;2024-03-06T00:20:33;6.50;99.90
35804;DHT22;21924;51.934;7.414;2024-03-06T00:23:17;6.50;99.90
35804;DHT22;21924;51.934;7.414;2024-03-06T00:26:02;6.50;99.90
35804;DHT22;21924;51.934;7.414;2024-03-06T00:28:46;6.60;99.90
35804;DHT22;21924;51.934;7.414;2024-03-06T00:31:30;6.50;99.90
35804;DHT22;21924;51.934;7.414;2024-03-06T00:34:15;6.50;99.90
35804;DHT22;21924;51.934;7.414;2024-03-06T00:37:00;6.50;99.90
35804;DHT22;21924;51.934;7.414;2024-03-06T00:39:44;6.50;99.90
35804;DHT22;21924;51.934;7.414;2024-03-06T00:42:31;6.50;99.90
35804;DHT22;21924;51.934;7.414;2024-03-06T00:45:15;6.50;99.90
35804;DHT22;21924;51.934;7.414;2024-03-06T00:47:59;6.50;99.90
35804;DHT22;21924;51.934;7.414;2024-03-06T00:50:43;6.50;99.90
35804;DHT22;21924;51.934;7.414;2024-03-06T00:53:28;6.50;99.90
35804;DHT22;21924;51.934;7.414;2024-03-06T00:56:12;6.50;99.90
35804;DHT22;21924;51.934;7.414;2024-03-06T00:58:56;6.50;99.90
35804;DHT22;21924;51.934;7.414;2024-03-06T01:01:41;6.50;99.90
35804;DHT22;21924;51.934;7.414;2024-03-06T01:04:25;6.40;99.90
35804;DHT22;21924;51.934;7.414;2024-03-06T01:07:09;6.50;99.90
35804;DHT22;21924;51.934;7.414;2024-03-06T01:09:53;6.50;99.90
35804;DHT22;21924;51.934;7.414;2024-03-06T01:12:38;6.50;99.90
35804;DHT22;21924;51.934;7.414;2024-03-06T01:15:22;6.50;99.90
35804;DHT22;21924;51.934;7.414;2024-03-06T01:18:06;6.40;99.90
35804;DHT22;21924;51.934;7.414;2024-03-06T01:20:50;6.50;99.90
35804;DHT22;21924;51.934;7.414;2024-03-06T01:23:35;6.50;99.90
35804;DHT22;21924;51.934;7.414;2024-03-06T01:26:19;6.50;99.90
35804;DHT22;21924;51.934;7.414;2024-03-06T01:29:03;6.50;99.90
35804;DHT22;21924;51.934;7.414;2024-03-06T01:31:48;6.50;99.90
35804;DHT22;21924;51.934;7.414;2024-03-06T01:34:32;6.50;99.90
35804;DHT22;21924;51.934;7.414;2024-03-06T01:37:16;6.60;99.90
35804;DHT22;21924;51.934;7.414;2024-03-06T01:40:00;6.50;99.90
35804;DHT22;21924;51.934;7.414;2024-03-06T01:42:46;6.50;99.90
35804;DHT22;21924;51.934;7.414;2024-03-06T01:45:30;6.50;99.90
35804;DHT22;21924;51.934;7.414;2024-03-06T01:48:15;6.60;99.90
35804;DHT22;21924;51.934;7.414;2024-03-06T01:51:01;6.60;99.90
35804;DHT22;21924;51.934;7.414;2024-03-06T01:53:46;6.60;99.90
35804;DHT22;21924;51.934;7.414;2024-03-06T01:56:31;6.60;99.90
35804;DHT22;21924;51.934;7.414;2024-03-06T01:59:17;6.60;99.90
35804;DHT22;21924;51.934;7.414;2024-03-06T02:02:02;6.60;99.90
35804;DHT22;21924;51.934;7.414;2024-03-06T02:04:46;6.60;99.90
35804;DHT22;21924;51.934;7.414;2024-03-06T02:07:31;6.60;99.90
35804;DHT22;21924;51.934;7.414;2024-03-06T02:10:16;6.50;99.90
35804;DHT22;21924;51.934;7.414;2024-03-06T02:13:00;6.50;99.90
35804;DHT22;21924;51.934;7.414;2024-03-06T02:15:45;6.50;99.90
35804;DHT22;21924;51.934;7.414;2024-03-06T02:18:30;6.40;99.90
35804;DHT22;21924;51.934;7.414;2024-03-06T02:21:14;6.40;99.90
35804;DHT22;21924;51.934;7.414;2024-03-06T02:23:58;6.40;99.90
35804;DHT22;21924;51.934;7.414;2024-03-06T02:26:42;6.40;99.90
35804;DHT22;21924;51.934;7.414;2024-03-06T02:29:27;6.40;99.90
35804;DHT22;21924;51.934;7.414;2024-03-06T02:32:14;6.40;99.90
35804;DHT22;21924;51.934;7.414;2024-03-06T02:34:58;6.40;99.90
35804;DHT22;21924;51.934;7.414;2024-03-06T02:37:46;6.40;99.90
35804;DHT22;21924;51.934;7.414;2024-03-06T02:40:30;6.30;99.90
35804;DHT22;21924;51.934;7.414;2024-03-06T02:43:14;6.40;99.90
35804;DHT22;21924;51.934;7.414;2024-03-06T02:45:59;6.40;99.90
35804;DHT22;21924;51.934;7.414;2024-03-06T02:48:43;6.40;99.90
35804;DHT22;21924;51.934;7.414;2024-03-06T02:51:29;6.40;99.90
35804;DHT22;21924;51.934;7.414;2024-03-06T02:57:29;6.30;99.90
35804;DHT22;21924;51.934;7.414;2024-03-06T03:00:25;6.30;99.90
35804;DHT22;21924;51.934;7.414;2024-03-06T03:06:45;6.30;99.90
35804;DHT22;21924;51.934;7.414;2024-03-06T03:09:29;6.30;99.90
35804;DHT22;21924;51.934;7.414;2024-03-06T03:12:13;6.30;99.90
35804;DHT22;21924;51.934;7.414;2024-03-06T03:15:01;6.30;99.90
35804;DHT22;21924;51.934;7.414;2024-03-06T03:17:45;6.20;99.90
35804;DHT22;21924;51.934;7.414;2024-03-06T03:20:29;6.20;99.90
35804;DHT22;21924;51.934;7.414;2024-03-06T03:23:13;6.20;99.90
35804;DHT22;21924;51.934;7.414;2024-03-06T03:25:59;6.20;99.90
35804;DHT22;21924;51.934;7.414;2024-03-06T03:28:43;6.20;99.90
35804;DHT22;21924;51.934;7.414;2024-03-06T03:31:28;6.20;99.90
35804;DHT22;21924;51.934;7.414;2024-03-06T03:34:12;6.20;99.90
35804;DHT22;21924;51.934;7.414;2024-03-06T03:36:56;6.20;99.90
35804;DHT22;21924;51.934;7.414;2024-03-06T03:39:40;6.20;99.90
35804;DHT22;21924;51.934;7.414;2024-03-06T03:42:26;6.20;99.90
35804;DHT22;21924;51.934;7.414;2024-03-06T03:45:10;6.20;99.90
35804;DHT22;21924;51.934;7.414;2024-03-06T03:47:54;6.20;99.90
35804;DHT22;21924;51.934;7.414;2024-03-06T03:50:39;6.20;99.90
35804;DHT22;21924;51.934;7.414;2024-03-06T03:53:23;6.20;99.90
35804;DHT22;21924;51.934;7.414;2024-03-06T03:56:07;6.20;99.90
35804;DHT22;21924;51.934;7.414;2024-03-06T03:58:51;6.10;99.90
35804;DHT22;21924;51.934;7.414;2024-03-06T04:01:35;6.20;99.90
35804;DHT22;21924;51.934;7.414;2024-03-06T04:04:20;6.10;99.90
35804;DHT22;21924;51.934;7.414;2024-03-06T04:07:05;6.10;99.90
35804;DHT22;21924;51.934;7.414;2024-03-06T04:09:49;6.10;99.90
35804;DHT22;21924;51.934;7.414;2024-03-06T04:12:34;6.10;99.90
35804;DHT22;21924;51.934;7.414;2024-03-06T04:15:18;6.10;99.90
35804;DHT22;21924;51.934;7.414;2024-03-06T04:18:03;6.10;99.90
35804;DHT22;21924;51.934;7.414;2024-03-06T04:20:47;6.20;99.90
35804;DHT22;21924;51.934;7.414;2024-03-06T04:23:32;6.20;99.90
35804;DHT22;21924;51.934;7.414;2024-03-06T04:26:16;6.20;99.90
35804;DHT22;21924;51.934;7.414;2024-03-06T04:29:01;6.20;99.90
35804;DHT22;21924;51.934;7.414;2024-03-06T04:31:46;6.10;99.90
35804;DHT22;21924;51.934;7.414;2024-03-06T04:34:30;6.10;99.90
35804;DHT22;21924;51.934;7.414;2024-03-06T04:37:15;6.10;99.90
35804;DHT22;21924;51.934;7.414;2024-03-06T04:39:59;6.10;99.90
35804;DHT22;21924;51.934;7.414;2024-03-06T04:46:12;6.10;99.90
35804;DHT22;21924;51.934;7.414;2024-03-06T04:48:59;6.20;99.90
35804;DHT22;21924;51.934;7.414;2024-03-06T04:51:43;6.20;99.90
35804;DHT22;21924;51.934;7.414;2024-03-06T04:54:27;6.20;99.90
35804;DHT22;21924;51.934;7.414;2024-03-06T04:57:11;6.20;99.90
35804;DHT22;21924;51.934;7.414;2024-03-06T04:59:56;6.20;99.90
35804;DHT22;21924;51.934;7.414;2024-03-06T05:02:42;6.20;99.90
35804;DHT22;21924;51.934;7.414;2024-03-06T05:05:27;6.30;99.90
35804;DHT22;21924;51.934;7.414;2024-03-06T05:08:14;6.30;99.90
35804;DHT22;21924;51.934;7.414;2024-03-06T05:11:00;6.20;99.90
35804;DHT22;21924;51.934;7.414;2024-03-06T05:13:45;6.20;99.90
35804;DHT22;21924;51.934;7.414;2024-03-06T05:16:29;6.30;99.90
35804;DHT22;21924;51.934;7.414;2024-03-06T05:19:13;6.30;99.90
35804;DHT22;21924;51.934;7.414;2024-03-06T05:21:58;6.30;99.90
35804;DHT22;21924;51.934;7.414;2024-03-06T05:24:42;6.30;99.90
35804;DHT22;21924;51.934;7.414;2024-03-06T05:27:27;6.40;99.90
35804;DHT22;21924;51.934;7.414;2024-03-06T05:30:11;6.30;99.90
35804;DHT22;21924;51.934;7.414;2024-03-06T05:32:56;6.30;99.90
35804;DHT22;21924;51.934;7.414;2024-03-06T05:35:40;6.30;99.90
35804;DHT22;21924;51.934;7.414;2024-03-06T05:38:25;6.40;99.90
35804;DHT22;21924;51.934;7.414;2024-03-06T05:41:09;6.40;99.90
35804;DHT22;21924;51.934;7.414;2024-03-06T05:43:53;6.40;99.90
35804;DHT22;21924;51.934;7.414;2024-03-06T05:46:38;6.30;99.90
35804;DHT22;21924;51.934;7.414;2024-03-06T05:49:22;6.30;99.90
35804;DHT22;21924;51.934;7.414;2024-03-06T05:52:06;6.40;99.90
35804;DHT22;21924;51.934;7.414;2024-03-06T05:54:51;6.40;99.90
35804;DHT22;21924;51.934;7.414;2024-03-06T05:57:35;6.40;99.90
35804;DHT22;21924;51.934;7.414;2024-03-06T06:00:19;6.30;99.90
35804;DHT22;21924;51.934;7.414;2024-03-06T06:03:05;6.30;99.90
35804;DHT22;21924;51.934;7.414;2024-03-06T06:05:50;6.40;99.90
35804;DHT22;21924;51.934;7.414;2024-03-06T06:08:34;6.40;99.90
35804;DHT22;21924;51.934;7.414;2024-03-06T06:11:19;6.40;99.90
35804;DHT22;21924;51.934;7.414;2024-03-06T06:14:03;6.40;99.90
35804;DHT22;21924;51.934;7.414;2024-03-06T06:16:47;6.30;99.90
35804;DHT22;21924;51.934;7.414;2024-03-06T06:19:31;6.30;99.90
35804;DHT22;21924;51.934;7.414;2024-03-06T06:22:16;6.40;99.90
35804;DHT22;21924;51.934;7.414;2024-03-06T06:25:00;6.30;99.90
35804;DHT22;21924;51.934;7.414;2024-03-06T06:27:45;6.30;99.90
35804;DHT22;21924;51.934;7.414;2024-03-06T06:30:29;6.30;99.90
35804;DHT22;21924;51.934;7.414;2024-03-06T06:33:13;6.30;99.90
35804;DHT22;21924;51.934;7.414;2024-03-06T06:35:57;6.30;99.90
35804;DHT22;21924;51.934;7.414;2024-03-06T06:38:41;6.30;99.90
35804;DHT22;21924;51.934;7.414;2024-03-06T06:41:26;6.30;99.90
35804;DHT22;21924;51.934;7.414;2024-03-06T06:44:10;6.30;99.90
35804;DHT22;21924;51.934;7.414;2024-03-06T06:46:54;6.40;99.90
35804;DHT22;21924;51.934;7.414;2024-03-06T06:49:39;6.40;99.90
35804;DHT22;21924;51.934;7.414;2024-03-06T06:52:23;6.40;99.90
35804;DHT22;21924;51.934;7.414;2024-03-06T06:55:07;6.40;99.90
35804;DHT22;21924;51.934;7.414;2024-03-06T06:57:55;6.40;99.90
35804;DHT22;21924;51.934;7.414;2024-03-06T07:00:39;6.40;99.90
35804;DHT22;21924;51.934;7.414;2024-03-06T07:03:23;6.40;99.90
35804;DHT22;21924;51.934;7.414;2024-03-06T07:06:13;6.50;99.90
35804;DHT22;21924;51.934;7.414;2024-03-06T07:08:57;6.40;99.90
35804;DHT22;21924;51.934;7.414;2024-03-06T07:11:42;6.50;99.90
35804;DHT22;21924;51.934;7.414;2024-03-06T07:14:27;6.50;99.90
35804;DHT22;21924;51.934;7.414;2024-03-06T07:17:12;6.50;99.90
35804;DHT22;21924;51.934;7.414;2024-03-06T07:19:56;6.70;99.90
35804;DHT22;21924;51.934;7.414;2024-03-06T07:22:40;6.60;99.90
35804;DHT22;21924;51.934;7.414;2024-03-06T07:25:24;6.70;99.90
35804;DHT22;21924;51.934;7.414;2024-03-06T07:28:09;6.70;99.90
35804;DHT22;21924;51.934;7.414;2024-03-06T07:30:53;6.80;99.90
35804;DHT22;21924;51.934;7.414;2024-03-06T07:33:43;6.90;99.90
35804;DHT22;21924;51.934;7.414;2024-03-06T07:36:31;6.90;99.90
35804;DHT22;21924;51.934;7.414;2024-03-06T07:39:16;6.90;99.90
35804;DHT22;21924;51.934;7.414;2024-03-06T07:42:00;7.00;99.90
35804;DHT22;21924;51.934;7.414;2024-03-06T07:44:44;7.00;99.90
35804;DHT22;21924;51.934;7.414;2024-03-06T07:47:28;7.00;99.90
35804;DHT22;21924;51.934;7.414;2024-03-06T07:50:12;7.10;99.90
35804;DHT22;21924;51.934;7.414;2024-03-06T07:53:02;7.00;99.90
35804;DHT22;21924;51.934;7.414;2024-03-06T07:55:46;7.10;99.90
35804;DHT22;21924;51.934;7.414;2024-03-06T07:58:31;7.20;99.90
35804;DHT22;21924;51.934;7.414;2024-03-06T08:01:18;7.20;99.90
35804;DHT22;21924;51.934;7.414;2024-03-06T08:04:03;7.30;99.90
35804;DHT22;21924;51.934;7.414;2024-03-06T08:06:47;7.40;99.90
35804;DHT22;21924;51.934;7.414;2024-03-06T08:09:31;7.40;99.90
35804;DHT22;21924;51.934;7.414;2024-03-06T08:12:15;7.40;99.90
35804;DHT22;21924;51.934;7.414;2024-03-06T08:15:00;7.40;99.90
35804;DHT22;21924;51.934;7.414;2024-03-06T08:17:46;7.50;99.90
35804;DHT22;21924;51.934;7.414;2024-03-06T08:20:30;7.70;99.90
35804;DHT22;21924;51.934;7.414;2024-03-06T08:23:14;7.70;99.90
35804;DHT22;21924;51.934;7.414;2024-03-06T08:26:01;8.00;99.90
35804;DHT22;21924;51.934;7.414;2024-03-06T08:28:45;8.00;99.90
35804;DHT22;21924;51.934;7.414;2024-03-06T08:31:42;8.00;99.90
35804;DHT22;21924;51.934;7.414;2024-03-06T08:34:27;8.10;99.90
35804;DHT22;21924;51.934;7.414;2024-03-06T08:37:11;8.20;99.90
35804;DHT22;21924;51.934;7.414;2024-03-06T08:39:57;8.20;99.90
35804;DHT22;21924;51.934;7.414;2024-03-06T08:42:42;8.20;99.90
35804;DHT22;21924;51.934;7.414;2024-03-06T08:45:26;8.10;99.90
35804;DHT22;21924;51.934;7.414;2024-03-06T08:48:10;8.10;99.90
35804;DHT22;21924;51.934;7.414;2024-03-06T08:50:55;8.20;99.90
35804;DHT22;21924;51.934;7.414;2024-03-06T08:53:39;8.20;99.90
35804;DHT22;21924;51.934;7.414;2024-03-06T08:56:23;8.20;99.90
35804;DHT22;21924;51.934;7.414;2024-03-06T08:59:07;8.20;99.90
35804;DHT22;21924;51.934;7.414;2024-03-06T09:01:53;8.10;99.90
35804;DHT22;21924;51.934;7.414;2024-03-06T09:04:38;8.10;99.90
35804;DHT22;21924;51.934;7.414;2024-03-06T09:07:22;8.10;99.90
35804;DHT22;21924;51.934;7.414;2024-03-06T09:10:08;8.10;99.90
35804;DHT22;21924;51.934;7.414;2024-03-06T09:12:53;8.00;99.90
35804;DHT22;21924;51.934;7.414;2024-03-06T09:15:37;8.30;99.90
35804;DHT22;21924;51.934;7.414;2024-03-06T09:18:22;8.30;99.90
35804;DHT22;21924;51.934;7.414;2024-03-06T09:21:06;8.40;99.90
35804;DHT22;21924;51.934;7.414;2024-03-06T09:23:56;8.40;99.90
35804;DHT22;21924;51.934;7.414;2024-03-06T09:26:40;8.60;99.90
35804;DHT22;21924;51.934;7.414;2024-03-06T09:29:25;8.50;99.90
35804;DHT22;21924;51.934;7.414;2024-03-06T09:32:09;8.60;99.90
35804;DHT22;21924;51.934;7.414;2024-03-06T09:34:53;8.70;99.90
35804;DHT22;21924;51.934;7.414;2024-03-06T09:37:38;8.80;99.90
35804;DHT22;21924;51.934;7.414;2024-03-06T09:40:22;9.00;99.90
35804;DHT22;21924;51.934;7.414;2024-03-06T09:43:07;9.20;99.90
35804;DHT22;21924;51.934;7.414;2024-03-06T09:45:51;9.70;99.90
35804;DHT22;21924;51.934;7.414;2024-03-06T09:48:35;10.00;99.90
35804;DHT22;21924;51.934;7.414;2024-03-06T09:51:19;10.30;99.90
35804;DHT22;21924;51.934;7.414;2024-03-06T09:54:05;10.60;99.90
35804;DHT22;21924;51.934;7.414;2024-03-06T09:56:51;10.40;99.90
35804;DHT22;21924;51.934;7.414;2024-03-06T09:59:35;10.40;99.90
35804;DHT22;21924;51.934;7.414;2024-03-06T10:02:34;10.10;99.90
35804;DHT22;21924;51.934;7.414;2024-03-06T10:05:21;9.90;99.90
35804;DHT22;21924;51.934;7.414;2024-03-06T10:08:06;9.50;99.90
35804;DHT22;21924;51.934;7.414;2024-03-06T10:10:50;9.40;99.90
35804;DHT22;21924;51.934;7.414;2024-03-06T10:13:34;9.30;99.90
35804;DHT22;21924;51.934;7.414;2024-03-06T10:16:28;9.20;99.90
35804;DHT22;21924;51.934;7.414;2024-03-06T10:19:18;9.10;99.90
35804;DHT22;21924;51.934;7.414;2024-03-06T10:22:02;9.00;99.90
35804;DHT22;21924;51.934;7.414;2024-03-06T10:24:55;9.00;99.90
35804;DHT22;21924;51.934;7.414;2024-03-06T10:27:42;9.00;99.90
35804;DHT22;21924;51.934;7.414;2024-03-06T10:30:26;9.00;99.90
35804;DHT22;21924;51.934;7.414;2024-03-06T10:33:12;9.00;99.90
35804;DHT22;21924;51.934;7.414;2024-03-06T10:35:57;8.90;99.90
35804;DHT22;21924;51.934;7.414;2024-03-06T10:38:41;9.00;99.90
35804;DHT22;21924;51.934;7.414;2024-03-06T10:41:27;9.10;99.90
35804;DHT22;21924;51.934;7.414;2024-03-06T10:44:16;9.10;99.90
35804;DHT22;21924;51.934;7.414;2024-03-06T10:47:05;9.30;99.90
35804;DHT22;21924;51.934;7.414;2024-03-06T10:49:50;9.60;99.90
35804;DHT22;21924;51.934;7.414;2024-03-06T10:52:34;9.80;99.90
35804;DHT22;21924;51.934;7.414;2024-03-06T10:55:18;10.10;99.90
35804;DHT22;21924;51.934;7.414;2024-03-06T10:58:06;10.30;99.90
35804;DHT22;21924;51.934;7.414;2024-03-06T11:00:53;10.60;99.90
35804;DHT22;21924;51.934;7.414;2024-03-06T11:03:41;10.90;99.90
35804;DHT22;21924;51.934;7.414;2024-03-06T11:06:26;11.40;99.90
35804;DHT22;21924;51.934;7.414;2024-03-06T11:09:10;11.60;99.90
35804;DHT22;21924;51.934;7.414;2024-03-06T11:11:59;11.90;99.90
35804;DHT22;21924;51.934;7.414;2024-03-06T11:14:43;12.10;99.90
35804;DHT22;21924;51.934;7.414;2024-03-06T11:17:28;12.40;99.90
35804;DHT22;21924;51.934;7.414;2024-03-06T11:20:18;12.60;99.90
35804;DHT22;21924;51.934;7.414;2024-03-06T11:23:02;12.40;99.90
35804;DHT22;21924;51.934;7.414;2024-03-06T11:28:40;12.00;99.90
35804;DHT22;21924;51.934;7.414;2024-03-06T11:31:24;11.80;99.90
35804;DHT22;21924;51.934;7.414;2024-03-06T11:34:10;11.60;99.90
35804;DHT22;21924;51.934;7.414;2024-03-06T11:36:58;11.50;99.90
35804;DHT22;21924;51.934;7.414;2024-03-06T11:39:42;11.50;99.90
35804;DHT22;21924;51.934;7.414;2024-03-06T11:42:34;11.50;99.90
35804;DHT22;21924;51.934;7.414;2024-03-06T11:45:20;11.40;99.90
35804;DHT22;21924;51.934;7.414;2024-03-06T11:48:06;11.50;99.90
35804;DHT22;21924;51.934;7.414;2024-03-06T11:50:51;11.40;99.90
35804;DHT22;21924;51.934;7.414;2024-03-06T11:53:35;11.40;99.90
35804;DHT22;21924;51.934;7.414;2024-03-06T11:56:21;11.30;99.90
35804;DHT22;21924;51.934;7.414;2024-03-06T11:59:05;11.10;99.90
35804;DHT22;21924;51.934;7.414;2024-03-06T12:01:51;11.20;99.90
35804;DHT22;21924;51.934;7.414;2024-03-06T12:04:36;11.60;99.90
35804;DHT22;21924;51.934;7.414;2024-03-06T12:07:23;11.80;99.90
35804;DHT22;21924;51.934;7.414;2024-03-06T12:10:07;11.90;99.90
35804;DHT22;21924;51.934;7.414;2024-03-06T12:12:53;11.90;99.90
35804;DHT22;21924;51.934;7.414;2024-03-06T13:38:00;12.00;99.90
35804;DHT22;21924;51.934;7.414;2024-03-06T13:41:22;12.10;99.90
35804;DHT22;21924;51.934;7.414;2024-03-06T13:44:10;12.20;99.90
35804;DHT22;21924;51.934;7.414;2024-03-06T13:46:54;12.10;99.90
35804;DHT22;21924;51.934;7.414;2024-03-06T13:53:14;12.00;99.90
35804;DHT22;21924;51.934;7.414;2024-03-06T13:57:02;11.90;99.90
35804;DHT22;21924;51.934;7.414;2024-03-06T14:03:07;11.80;99.90
35804;DHT22;21924;51.934;7.414;2024-03-06T14:06:26;12.00;99.90
35804;DHT22;21924;51.934;7.414;2024-03-06T14:09:35;11.80;99.90
35804;DHT22;21924;51.934;7.414;2024-03-06T14:12:34;11.80;99.90
35804;DHT22;21924;51.934;7.414;2024-03-06T14:15:47;11.80;99.90
35804;DHT22;21924;51.934;7.414;2024-03-06T14:18:54;11.70;99.90
35804;DHT22;21924;51.934;7.414;2024-03-06T14:21:44;11.70;99.90
35804;DHT22;21924;51.934;7.414;2024-03-06T14:24:30;11.80;99.90
35804;DHT22;21924;51.934;7.414;2024-03-06T14:27:18;11.80;99.90
35804;DHT22;21924;51.934;7.414;2024-03-06T14:30:05;11.80;99.90
35804;DHT22;21924;51.934;7.414;2024-03-06T14:32:53;11.70;99.90
35804;DHT22;21924;51.934;7.414;2024-03-06T14:35:37;11.70;99.90
35804;DHT22;21924;51.934;7.414;2024-03-06T14:38:21;11.50;99.90
35804;DHT22;21924;51.934;7.414;2024-03-06T14:41:06;11.40;99.90
35804;DHT22;21924;51.934;7.414;2024-03-06T14:43:51;11.50;99.90
35804;DHT22;21924;51.934;7.414;2024-03-06T14:46:35;11.70;99.90
35804;DHT22;21924;51.934;7.414;2024-03-06T14:49:19;11.80;99.90
35804;DHT22;21924;51.934;7.414;2024-03-06T14:52:03;11.70;99.90
35804;DHT22;21924;51.934;7.414;2024-03-06T14:54:48;11.70;99.90
35804;DHT22;21924;51.934;7.414;2024-03-06T14:57:33;11.60;99.90
35804;DHT22;21924;51.934;7.414;2024-03-06T15:00:17;11.70;99.90
35804;DHT22;21924;51.934;7.414;2024-03-06T15:03:04;11.70;99.90
35804;DHT22;21924;51.934;7.414;2024-03-06T15:05:48;11.50;99.90
35804;DHT22;21924;51.934;7.414;2024-03-06T15:08:33;11.60;99.90
35804;DHT22;21924;51.934;7.414;2024-03-06T15:11:19;11.50;99.90
35804;DHT22;21924;51.934;7.414;2024-03-06T15:14:06;11.30;99.90
35804;DHT22;21924;51.934;7.414;2024-03-06T15:16:51;11.20;99.90
35804;DHT22;21924;51.934;7.414;2024-03-06T15:19:36;11.20;99.90
35804;DHT22;21924;51.934;7.414;2024-03-06T15:22:37;11.10;99.90
35804;DHT22;21924;51.934;7.414;2024-03-06T15:25:56;11.00;99.90
35804;DHT22;21924;51.934;7.414;2024-03-06T15:28:40;11.00;99.90
35804;DHT22;21924;51.934;7.414;2024-03-06T15:34:46;11.10;99.90
35804;DHT22;21924;51.934;7.414;2024-03-06T15:47:38;10.80;99.90
35804;DHT22;21924;51.934;7.414;2024-03-06T15:53:45;10.60;99.90
35804;DHT22;21924;51.934;7.414;2024-03-06T15:56:38;10.50;99.90
35804;DHT22;21924;51.934;7.414;2024-03-06T16:25:57;10.00;99.90
35804;DHT22;21924;51.934;7.414;2024-03-06T16:28:41;9.90;99.90
35804;DHT22;21924;51.934;7.414;2024-03-06T16:31:38;9.80;99.90
35804;DHT22;21924;51.934;7.414;2024-03-06T16:37:46;9.70;99.90
35804;DHT22;21924;51.934;7.414;2024-03-06T16:47:39;9.40;99.90
35804;DHT22;21924;51.934;7.414;2024-03-06T16:50:28;9.30;99.90
35804;DHT22;21924;51.934;7.414;2024-03-06T17:19:43;8.40;99.90
35804;DHT22;21924;51.934;7.414;2024-03-06T17:22:40;8.20;99.90
35804;DHT22;21924;51.934;7.414;2024-03-06T17:28:31;8.00;99.90
35804;DHT22;21924;51.934;7.414;2024-03-06T17:34:39;7.90;99.90
35804;DHT22;21924;51.934;7.414;2024-03-06T17:40:49;7.70;99.90
35804;DHT22;21924;51.934;7.414;2024-03-06T18:08:46;7.00;99.90
35804;DHT22;21924;51.934;7.414;2024-03-06T18:11:43;7.00;99.90
35804;DHT22;21924;51.934;7.414;2024-03-06T18:14:27;6.90;99.90
35804;DHT22;21924;51.934;7.414;2024-03-06T18:17:11;6.90;99.90
35804;DHT22;21924;51.934;7.414;2024-03-06T18:19:55;6.80;99.90
35804;DHT22;21924;51.934;7.414;2024-03-06T18:22:40;6.70;99.90
35804;DHT22;21924;51.934;7.414;2024-03-06T18:25:24;6.70;99.90
35804;DHT22;21924;51.934;7.414;2024-03-06T18:28:12;6.70;99.90
35804;DHT22;21924;51.934;7.414;2024-03-06T18:30:56;6.70;99.90
35804;DHT22;21924;51.934;7.414;2024-03-06T18:37:02;6.70;99.90
35804;DHT22;21924;51.934;7.414;2024-03-06T18:46:43;6.70;99.90
35804;DHT22;21924;51.934;7.414;2024-03-06T19:06:06;6.50;99.90
35804;DHT22;21924;51.934;7.414;2024-03-06T19:25:50;6.30;99.90
35804;DHT22;21924;51.934;7.414;2024-03-06T19:28:38;6.30;99.90
35804;DHT22;21924;51.934;7.414;2024-03-06T20:19:11;5.90;99.90
35804;DHT22;21924;51.934;7.414;2024-03-06T20:22:25;5.80;99.90
35804;DHT22;21924;51.934;7.414;2024-03-06T20:25:37;5.80;99.90
35804;DHT22;21924;51.934;7.414;2024-03-06T20:28:30;5.80;99.90
35804;DHT22;21924;51.934;7.414;2024-03-06T20:38:31;5.80;99.90
35804;DHT22;21924;51.934;7.414;2024-03-06T20:48:01;5.80;99.90
35804;DHT22;21924;51.934;7.414;2024-03-06T21:31:35;5.60;99.90
35804;DHT22;21924;51.934;7.414;2024-03-06T21:44:45;5.50;99.90
35804;DHT22;21924;51.934;7.414;2024-03-06T21:50:52;5.30;99.90
35804;DHT22;21924;51.934;7.414;2024-03-06T22:00:20;5.30;99.90
35804;DHT22;21924;51.934;7.414;2024-03-06T22:13:04;5.30;99.90
35804;DHT22;21924;51.934;7.414;2024-03-06T22:15:51;5.40;99.90
35804;DHT22;21924;51.934;7.414;2024-03-06T22:28:45;5.30;99.90
35804;DHT22;21924;51.934;7.414;2024-03-06T22:31:32;5.30;99.90
35804;DHT22;21924;51.934;7.414;2024-03-06T22:51:24;5.20;99.90
35804;DHT22;21924;51.934;7.414;2024-03-06T23:04:11;5.10;99.90
35804;DHT22;21924;51.934;7.414;2024-03-06T23:10:56;5.10;99.90
35804;DHT22;21924;51.934;7.414;2024-03-06T23:17:13;5.00;99.90
35804;DHT22;21924;51.934;7.414;2024-03-06T23:46:58;4.90;99.90
35804;DHT22;21924;51.934;7.414;2024-03-06T23:49:43;4.90;99.90
35804;DHT22;21924;51.934;7.414;2024-03-06T23:52:27;4.90;99.90
35804;DHT22;21924;51.934;7.414;2024-03-06T23:55:11;4.90;99.90
35804;DHT22;21924;51.934;7.414;2024-03-06T23:57:56;4.90;99.90
